createdAt,value
2022-07-30T00:00:48.883Z,52.15
2022-07-30T00:03:16.633Z,52.11
2022-07-30T00:05:44.758Z,52.22
2022-07-30T00:08:14.849Z,52.38
2022-07-30T00:10:48.394Z,52.83
2022-07-30T00:13:21.274Z,52.65
2022-07-30T00:15:48.756Z,52.67
2022-07-30T00:18:16.552Z,52.77
2022-07-30T00:20:44.390Z,53.26
2022-07-30T00:23:14.832Z,53.34
2022-07-30T00:25:46.292Z,54.13
2022-07-30T00:28:15.477Z,54.13
2022-07-30T00:30:45.241Z,54.26
2022-07-30T00:33:17.149Z,54.70
2022-07-30T00:35:50.752Z,54.50
2022-07-30T00:38:19.753Z,54.82
2022-07-30T00:40:47.730Z,55.34
2022-07-30T00:43:26.197Z,54.88
2022-07-30T00:45:56.683Z,55.09
2022-07-30T00:48:29.362Z,55.45
2022-07-30T00:51:00.882Z,55.42
2022-07-30T00:53:28.662Z,56.11
2022-07-30T00:55:55.806Z,55.84
2022-07-30T00:58:23.334Z,56.06
2022-07-30T01:01:26.949Z,56.87
2022-07-30T01:03:54.253Z,56.33
2022-07-30T01:06:26.759Z,56.72
2022-07-30T01:09:03.814Z,56.51
2022-07-30T01:11:40.164Z,57.02
2022-07-30T01:14:13.150Z,56.97
2022-07-30T01:16:57.116Z,57.16
2022-07-30T01:19:51.807Z,57.28
2022-07-30T01:22:35.103Z,57.80
2022-07-30T01:25:27.996Z,58.13
2022-07-30T01:28:03.643Z,57.35
2022-07-30T01:30:40.490Z,57.53
2022-07-30T01:33:14.957Z,57.58
2022-07-30T01:35:45.956Z,57.15
2022-07-30T01:38:17.532Z,57.26
2022-07-30T01:40:51.979Z,57.27
2022-07-30T01:43:24.534Z,57.29
2022-07-30T01:45:56.743Z,57.72
2022-07-30T01:48:26.468Z,57.26
2022-07-30T01:50:58.245Z,57.29
2022-07-30T01:53:30.231Z,57.14
2022-07-30T01:56:00.567Z,57.11
2022-07-30T01:58:32.026Z,56.99
2022-07-30T02:01:10.768Z,57.03
2022-07-30T02:03:43.038Z,56.76
2022-07-30T02:06:25.510Z,56.57
2022-07-30T02:08:56.959Z,56.59
2022-07-30T02:11:47.558Z,56.10
2022-07-30T02:14:36.759Z,55.93
2022-07-30T02:17:05.805Z,55.98
2022-07-30T02:19:37.039Z,55.66
2022-07-30T02:22:14.653Z,55.27
2022-07-30T02:24:46.261Z,55.25
2022-07-30T02:27:28.833Z,55.36
2022-07-30T02:30:04.887Z,54.83
2022-07-30T02:32:36.740Z,55.17
2022-07-30T02:35:12.602Z,55.01
2022-07-30T02:37:44.181Z,54.72
2022-07-30T02:40:16.367Z,54.91
2022-07-30T02:42:47.252Z,54.47
2022-07-30T02:45:19.316Z,54.08
2022-07-30T02:47:55.352Z,53.88
2022-07-30T02:50:24.885Z,53.63
2022-07-30T02:53:01.627Z,53.39
2022-07-30T02:55:38.232Z,53.47
2022-07-30T02:58:08.099Z,53.53
2022-07-30T03:00:36.361Z,53.45
2022-07-30T03:03:10.754Z,53.60
2022-07-30T03:05:40.070Z,53.30
2022-07-30T03:08:13.443Z,53.25
2022-07-30T03:10:55.654Z,53.62
2022-07-30T03:13:38.912Z,53.69
2022-07-30T03:16:17.707Z,53.30
2022-07-30T03:18:59.427Z,53.58
2022-07-30T03:21:28.420Z,53.19
2022-07-30T03:24:05.554Z,53.84
2022-07-30T03:26:37.764Z,53.48
2022-07-30T03:29:07.126Z,53.28
2022-07-30T03:31:38.006Z,53.41
2022-07-30T03:34:07.851Z,53.32
2022-07-30T03:36:40.598Z,54.00
2022-07-30T03:39:11.184Z,53.84
2022-07-30T03:41:41.650Z,54.45
2022-07-30T03:44:16.392Z,54.38
2022-07-30T03:46:51.750Z,54.83
2022-07-30T03:49:29.486Z,55.16
2022-07-30T03:51:57.392Z,55.43
2022-07-30T03:54:34.164Z,55.42
2022-07-30T03:57:27.930Z,54.86
2022-07-30T04:00:03.883Z,55.23
2022-07-30T04:02:48.102Z,54.53
2022-07-30T04:05:43.779Z,55.01
2022-07-30T04:08:17.510Z,54.80
2022-07-30T04:10:58.740Z,55.14
2022-07-30T04:13:50.644Z,54.78
2022-07-30T04:16:42.117Z,54.82
2022-07-30T04:19:22.602Z,54.83
2022-07-30T04:21:54.207Z,54.60
2022-07-30T04:24:27.497Z,54.71
2022-07-30T04:27:08.193Z,54.71
2022-07-30T04:29:55.170Z,54.69
2022-07-30T04:32:23.225Z,54.80
2022-07-30T04:35:04.358Z,54.54
2022-07-30T04:37:59.055Z,54.40
2022-07-30T04:40:32.658Z,54.29
2022-07-30T04:43:00.190Z,54.36
2022-07-30T04:45:33.037Z,54.32
2022-07-30T04:48:05.672Z,54.47
2022-07-30T04:51:02.131Z,54.42
2022-07-30T04:53:34.751Z,54.34
2022-07-30T04:56:04.660Z,54.17
2022-07-30T04:58:34.105Z,54.02
2022-07-30T05:01:09.266Z,53.99
2022-07-30T05:03:40.899Z,54.22
2022-07-30T05:06:15.843Z,54.01
2022-07-30T05:08:52.329Z,54.27
2022-07-30T05:11:23.741Z,54.35
2022-07-30T05:13:55.046Z,54.41
2022-07-30T05:16:30.004Z,54.23
2022-07-30T05:19:07.876Z,54.40
2022-07-30T05:21:36.637Z,54.00
2022-07-30T05:24:05.014Z,54.26
2022-07-30T05:26:37.388Z,54.18
2022-07-30T05:29:07.176Z,54.12
2022-07-30T05:32:02.633Z,54.58
2022-07-30T05:34:34.627Z,54.17
2022-07-30T05:37:02.464Z,53.74
2022-07-30T05:39:32.856Z,53.86
2022-07-30T05:42:35.688Z,54.22
2022-07-30T05:45:03.425Z,53.25
2022-07-30T05:47:34.826Z,54.11
2022-07-30T05:50:13.159Z,53.52
2022-07-30T05:52:56.309Z,53.48
2022-07-30T05:55:53.178Z,53.71
2022-07-30T05:58:46.130Z,53.52
2022-07-30T06:01:32.871Z,53.48
2022-07-30T06:04:15.092Z,53.30
2022-07-30T06:07:09.977Z,53.47
2022-07-30T06:10:07.340Z,53.83
2022-07-30T06:13:32.025Z,53.75
2022-07-30T06:16:20.459Z,53.32
2022-07-30T06:19:01.516Z,53.34
2022-07-30T06:22:06.132Z,53.82
2022-07-30T06:24:49.243Z,53.58
2022-07-30T06:27:44.445Z,52.97
2022-07-30T06:30:35.446Z,53.49
2022-07-30T06:33:30.974Z,53.28
2022-07-30T06:36:19.539Z,53.33
2022-07-30T06:39:09.249Z,53.75
2022-07-30T06:42:29.292Z,53.17
2022-07-30T06:45:28.122Z,53.21
2022-07-30T06:48:23.949Z,53.35
2022-07-30T06:50:55.708Z,52.92
2022-07-30T06:53:38.734Z,53.25
2022-07-30T06:56:40.773Z,53.06
2022-07-30T06:59:10.351Z,53.20
2022-07-30T07:01:50.806Z,52.95
2022-07-30T07:04:37.966Z,52.63
2022-07-30T07:07:13.415Z,52.81
2022-07-30T07:09:50.993Z,52.31
2022-07-30T07:12:50.820Z,52.38
2022-07-30T07:15:46.238Z,52.43
2022-07-30T07:18:27.537Z,52.37
2022-07-30T07:21:13.003Z,52.23
2022-07-30T07:23:57.236Z,52.05
2022-07-30T07:27:15.515Z,51.75
2022-07-30T07:30:01.862Z,51.33
2022-07-30T07:33:02.368Z,51.51
2022-07-30T07:35:48.801Z,50.95
2022-07-30T07:38:49.014Z,51.16
2022-07-30T07:41:48.903Z,51.13
2022-07-30T07:44:47.937Z,50.78
2022-07-30T07:47:55.693Z,50.34
2022-07-30T07:51:04.011Z,49.42
2022-07-30T07:53:42.231Z,49.50
2022-07-30T07:56:44.223Z,49.05
2022-07-30T07:59:21.616Z,48.28
2022-07-30T08:02:21.300Z,47.61
2022-07-30T08:05:14.952Z,47.92
2022-07-30T08:08:00.635Z,47.66
2022-07-30T08:11:37.913Z,47.32
2022-07-30T08:14:57.242Z,46.21
2022-07-30T08:18:06.337Z,46.60
2022-07-30T08:21:09.496Z,45.83
2022-07-30T08:23:48.331Z,46.16
2022-07-30T08:26:37.715Z,45.41
2022-07-30T08:29:17.396Z,45.75
2022-07-30T08:32:03.956Z,44.75
2022-07-30T08:34:44.360Z,45.20
2022-07-30T08:37:33.560Z,45.15
2022-07-30T08:40:09.358Z,44.76
2022-07-30T08:43:19.359Z,44.24
2022-07-30T08:46:30.156Z,45.16
2022-07-30T08:49:34.962Z,44.73
2022-07-30T08:52:03.256Z,44.14
2022-07-30T08:55:14.550Z,42.90
2022-07-30T08:57:43.550Z,43.16
2022-07-30T09:00:12.673Z,42.83
2022-07-30T09:02:40.746Z,42.38
2022-07-30T09:05:10.880Z,42.89
2022-07-30T09:07:44.211Z,42.20
2022-07-30T09:10:32.607Z,41.37
2022-07-30T09:13:04.373Z,41.16
2022-07-30T09:15:41.012Z,40.63
2022-07-30T09:18:17.686Z,40.44
2022-07-30T09:20:50.367Z,39.77
2022-07-30T09:23:20.277Z,40.27
2022-07-30T09:26:15.446Z,39.04
2022-07-30T09:29:20.402Z,38.30
2022-07-30T09:32:29.722Z,37.93
2022-07-30T09:35:33.353Z,38.09
2022-07-30T09:38:29.766Z,38.16
2022-07-30T09:41:46.467Z,37.77
2022-07-30T09:44:30.369Z,37.77
2022-07-30T09:47:13.491Z,38.01
2022-07-30T09:50:29.455Z,38.58
2022-07-30T09:53:18.765Z,37.60
2022-07-30T09:56:00.617Z,38.20
2022-07-30T09:58:46.245Z,37.99
2022-07-30T10:01:54.930Z,38.36
2022-07-30T10:07:57.323Z,36.26
2022-07-30T10:10:46.884Z,37.24
2022-07-30T10:13:22.185Z,36.44
2022-07-30T10:19:18.186Z,33.13
2022-07-30T10:22:27.084Z,32.58
2022-07-30T10:25:55.641Z,31.94
2022-07-30T10:28:49.139Z,32.54
2022-07-30T10:31:58.424Z,33.01
2022-07-30T10:34:47.729Z,33.24
2022-07-30T10:37:28.191Z,32.88
2022-07-30T10:40:39.530Z,32.62
2022-07-30T10:44:16.425Z,33.16
2022-07-30T10:47:16.939Z,33.52
2022-07-30T10:50:12.813Z,34.35
2022-07-30T10:53:08.382Z,35.67
2022-07-30T10:56:37.504Z,35.30
2022-07-30T10:59:19.192Z,34.08
2022-07-30T11:01:54.285Z,33.79
2022-07-30T11:04:34.790Z,33.26
2022-07-30T11:07:47.232Z,33.29
2022-07-30T11:10:48.044Z,33.71
2022-07-30T11:13:16.324Z,34.83
2022-07-30T11:20:15.527Z,36.56
2022-07-30T11:23:03.417Z,36.79
2022-07-30T11:25:51.225Z,36.90
2022-07-30T11:29:06.338Z,36.79
2022-07-30T11:32:06.819Z,37.21
2022-07-30T11:34:42.948Z,38.75
2022-07-30T11:37:32.145Z,37.97
2022-07-30T11:40:09.767Z,37.90
2022-07-30T11:42:48.468Z,38.45
2022-07-30T11:45:35.528Z,39.21
2022-07-30T11:48:24.742Z,39.45
2022-07-30T11:51:13.766Z,39.72
2022-07-30T11:53:46.411Z,40.30
2022-07-30T11:56:25.788Z,40.71
2022-07-30T11:59:06.704Z,39.53
2022-07-30T12:01:40.616Z,40.96
2022-07-30T12:04:12.327Z,40.53
2022-07-30T12:06:58.000Z,40.64
2022-07-30T12:09:36.729Z,38.89
2022-07-30T12:12:23.952Z,38.73
2022-07-30T12:15:00.217Z,40.32
2022-07-30T12:17:56.942Z,38.47
2022-07-30T12:20:48.396Z,37.85
2022-07-30T12:23:16.629Z,36.33
2022-07-30T12:26:00.449Z,38.47
2022-07-30T12:29:14.330Z,38.29
2022-07-30T12:32:08.355Z,39.44
2022-07-30T12:34:40.654Z,38.65
2022-07-30T12:37:31.445Z,38.82
2022-07-30T12:40:20.801Z,38.00
2022-07-30T12:43:02.580Z,37.95
2022-07-30T12:45:50.524Z,37.45
2022-07-30T12:48:32.468Z,36.61
2022-07-30T12:51:14.760Z,35.58
2022-07-30T12:53:51.912Z,36.11
2022-07-30T12:56:40.394Z,34.70
2022-07-30T12:59:26.244Z,33.44
2022-07-30T13:02:34.244Z,32.39
2022-07-30T13:05:21.233Z,33.37
2022-07-30T13:08:10.860Z,33.20
2022-07-30T13:11:03.679Z,33.42
2022-07-30T13:13:51.477Z,33.78
2022-07-30T13:16:40.688Z,33.39
2022-07-30T13:19:18.392Z,33.36
2022-07-30T13:21:56.395Z,33.15
2022-07-30T13:24:56.333Z,33.19
2022-07-30T13:30:39.277Z,30.63
2022-07-30T13:33:15.903Z,31.07
2022-07-30T13:35:55.230Z,31.50
2022-07-30T13:38:38.691Z,32.56
2022-07-30T13:41:46.487Z,31.50
2022-07-30T13:44:22.893Z,32.01
2022-07-30T13:47:01.824Z,32.22
2022-07-30T13:49:33.458Z,32.53
2022-07-30T13:52:08.011Z,32.13
2022-07-30T13:54:57.989Z,31.98
2022-07-30T13:57:36.539Z,32.91
2022-07-30T14:00:46.792Z,32.92
2022-07-30T14:03:23.739Z,33.76
2022-07-30T14:06:10.913Z,33.30
2022-07-30T14:08:56.356Z,33.18
2022-07-30T14:11:37.683Z,32.59
2022-07-30T14:14:17.468Z,32.83
2022-07-30T14:16:53.636Z,33.41
2022-07-30T14:19:27.024Z,34.26
2022-07-30T14:22:10.004Z,33.48
2022-07-30T14:24:56.269Z,32.67
2022-07-30T14:27:39.629Z,31.96
2022-07-30T14:30:32.031Z,32.28
2022-07-30T14:33:11.878Z,33.49
2022-07-30T14:35:50.365Z,33.25
2022-07-30T14:38:37.713Z,32.61
2022-07-30T14:41:12.351Z,33.45
2022-07-30T14:43:46.748Z,33.60
2022-07-30T14:46:25.590Z,32.15
2022-07-30T14:51:52.705Z,32.75
2022-07-30T14:54:34.442Z,33.16
2022-07-30T15:00:48.549Z,33.04
2022-07-30T15:03:36.709Z,34.09
2022-07-30T15:06:17.617Z,33.63
2022-07-30T15:09:11.918Z,32.50
2022-07-30T15:14:54.675Z,33.43
2022-07-30T15:17:33.269Z,33.44
2022-07-30T15:20:25.900Z,33.90
2022-07-30T15:23:24.432Z,34.14
2022-07-30T15:25:58.757Z,33.93
2022-07-30T15:28:42.679Z,34.81
2022-07-30T15:31:29.503Z,35.62
2022-07-30T15:34:04.142Z,34.27
2022-07-30T15:36:46.496Z,35.18
2022-07-30T15:39:57.644Z,35.97
2022-07-30T15:43:12.567Z,35.53
2022-07-30T15:46:23.038Z,36.01
2022-07-30T15:49:01.615Z,36.43
2022-07-30T15:51:49.514Z,36.90
2022-07-30T15:54:28.204Z,36.53
2022-07-30T15:57:16.461Z,37.03
2022-07-30T16:00:02.925Z,36.89
2022-07-30T16:02:58.223Z,37.68
2022-07-30T16:05:51.657Z,37.18
2022-07-30T16:08:46.195Z,35.89
2022-07-30T16:14:25.859Z,36.89
2022-07-30T16:17:09.391Z,36.41
2022-07-30T16:19:46.376Z,36.53
2022-07-30T16:22:24.715Z,36.29
2022-07-30T16:25:06.137Z,35.79
2022-07-30T16:27:44.523Z,36.47
2022-07-30T16:30:27.401Z,36.85
2022-07-30T16:33:12.316Z,37.62
2022-07-30T16:35:57.732Z,38.20
2022-07-30T16:38:52.060Z,38.65
2022-07-30T16:41:33.270Z,37.78
2022-07-30T16:44:32.179Z,37.75
2022-07-30T16:47:05.431Z,38.16
2022-07-30T16:49:50.603Z,38.61
2022-07-30T16:52:32.656Z,38.80
2022-07-30T16:55:14.334Z,38.50
2022-07-30T17:01:24.155Z,37.48
2022-07-30T17:04:23.869Z,35.32
2022-07-30T17:07:07.623Z,36.41
2022-07-30T17:09:52.487Z,35.99
2022-07-30T17:12:32.669Z,37.89
2022-07-30T17:15:31.944Z,38.10
2022-07-30T17:18:48.387Z,38.70
2022-07-30T17:21:33.743Z,39.52
2022-07-30T17:24:26.618Z,39.91
2022-07-30T17:27:11.364Z,40.16
2022-07-30T17:29:53.026Z,40.68
2022-07-30T17:32:31.666Z,41.00
2022-07-30T17:35:13.721Z,41.61
2022-07-30T17:37:49.093Z,42.41
2022-07-30T17:43:25.059Z,41.71
2022-07-30T17:46:06.979Z,42.37
2022-07-30T17:48:47.315Z,42.25
2022-07-30T17:51:35.874Z,41.95
2022-07-30T17:54:20.130Z,41.67
2022-07-30T17:57:42.586Z,41.18
2022-07-30T18:00:32.647Z,41.56
2022-07-30T18:03:21.818Z,41.27
2022-07-30T18:06:18.215Z,41.20
2022-07-30T18:12:24.077Z,41.57
2022-07-30T18:15:04.121Z,41.36
2022-07-30T18:17:48.542Z,41.43
2022-07-30T18:20:38.370Z,41.10
2022-07-30T18:23:34.986Z,40.96
2022-07-30T18:29:45.847Z,41.18
2022-07-30T18:32:27.456Z,41.36
2022-07-30T18:35:13.788Z,42.41
2022-07-30T18:37:51.209Z,41.73
2022-07-30T18:40:24.093Z,41.95
2022-07-30T18:43:05.947Z,42.82
2022-07-30T18:45:38.364Z,42.77
2022-07-30T18:48:09.304Z,42.36
2022-07-30T18:50:36.586Z,43.23
2022-07-30T18:53:15.285Z,43.02
2022-07-30T18:55:44.647Z,42.81
2022-07-30T18:58:17.167Z,43.06
2022-07-30T19:01:06.670Z,42.64
2022-07-30T19:03:35.732Z,43.58
2022-07-30T19:06:11.967Z,43.00
2022-07-30T19:08:45.156Z,42.99
2022-07-30T19:11:18.025Z,43.50
2022-07-30T19:13:51.387Z,43.39
2022-07-30T19:16:34.716Z,44.63
2022-07-30T19:19:04.630Z,44.00
2022-07-30T19:21:36.448Z,44.66
2022-07-30T19:24:17.093Z,43.63
2022-07-30T19:26:52.923Z,44.42
2022-07-30T19:29:33.077Z,44.39
2022-07-30T19:32:17.059Z,45.26
2022-07-30T19:34:47.959Z,44.27
2022-07-30T19:37:27.617Z,44.35
2022-07-30T19:40:06.068Z,45.11
2022-07-30T19:42:41.442Z,45.35
2022-07-30T19:45:17.074Z,45.43
2022-07-30T19:47:49.886Z,45.51
2022-07-30T19:50:17.187Z,45.07
2022-07-30T19:52:51.514Z,45.62
2022-07-30T19:58:18.517Z,45.93
2022-07-30T20:00:49.396Z,45.98
2022-07-30T20:03:26.262Z,45.45
2022-07-30T20:06:03.232Z,45.15
2022-07-30T20:08:31.415Z,45.71
2022-07-30T20:11:08.552Z,45.64
2022-07-30T20:13:57.853Z,44.86
2022-07-30T20:17:04.604Z,45.12
2022-07-30T20:19:47.597Z,44.94
2022-07-30T20:22:27.436Z,45.55
2022-07-30T20:25:01.383Z,44.79
2022-07-30T20:30:50.477Z,45.36
2022-07-30T20:33:41.566Z,45.00
2022-07-30T20:36:11.880Z,44.79
2022-07-30T20:38:52.847Z,44.33
2022-07-30T20:41:25.459Z,44.15
2022-07-30T20:44:06.937Z,43.85
2022-07-30T20:49:48.127Z,44.38
2022-07-30T20:52:34.490Z,45.07
2022-07-30T20:55:22.025Z,44.39
2022-07-30T20:58:12.863Z,44.95
2022-07-30T21:00:55.928Z,45.06
2022-07-30T21:03:35.908Z,45.29
2022-07-30T21:06:18.262Z,45.22
2022-07-30T21:09:02.689Z,45.47
2022-07-30T21:14:31.889Z,45.23
2022-07-30T21:17:06.752Z,45.30
2022-07-30T21:19:53.839Z,45.55
2022-07-30T21:22:33.842Z,45.63
2022-07-30T21:25:02.637Z,44.74
2022-07-30T21:27:43.826Z,45.12
2022-07-30T21:30:28.843Z,45.02
2022-07-30T21:33:24.623Z,44.58
2022-07-30T21:36:10.357Z,44.54
2022-07-30T21:38:42.192Z,44.80
2022-07-30T21:41:40.092Z,45.20
2022-07-30T21:44:09.712Z,44.92
2022-07-30T21:46:50.123Z,44.61
2022-07-30T21:49:18.293Z,44.81
2022-07-30T21:51:49.533Z,44.89
2022-07-30T21:54:29.388Z,45.21
2022-07-30T21:57:02.524Z,44.35
2022-07-30T21:59:36.240Z,44.41
2022-07-30T22:02:18.719Z,45.29
2022-07-30T22:04:54.231Z,46.01
2022-07-30T22:07:29.945Z,45.19
2022-07-30T22:10:15.508Z,45.63
2022-07-30T22:12:56.525Z,45.87
2022-07-30T22:15:49.500Z,45.25
2022-07-30T22:18:27.797Z,45.27
2022-07-30T22:21:06.118Z,45.63
2022-07-30T22:23:41.088Z,45.15
2022-07-30T22:26:24.435Z,45.74
2022-07-30T22:28:59.825Z,46.18
2022-07-30T22:31:39.515Z,45.94
2022-07-30T22:34:21.379Z,45.34
2022-07-30T22:37:12.849Z,46.52
2022-07-30T22:39:54.650Z,47.56
2022-07-30T22:42:30.832Z,46.96
2022-07-30T22:45:47.116Z,46.97
2022-07-30T22:48:28.113Z,48.33
2022-07-30T22:51:02.289Z,47.87
2022-07-30T22:53:56.803Z,46.91
2022-07-30T22:56:24.443Z,46.99
2022-07-30T22:58:55.063Z,46.95
2022-07-30T23:01:25.271Z,48.07
2022-07-30T23:04:07.277Z,47.55
2022-07-30T23:06:51.017Z,47.67
2022-07-30T23:09:28.799Z,47.42
2022-07-30T23:12:15.410Z,45.87
2022-07-30T23:12:19.636Z,44.90
2022-07-30T23:12:22.506Z,47.23
2022-07-30T23:14:56.178Z,47.33
2022-07-30T23:17:26.188Z,47.13
2022-07-30T23:19:54.145Z,47.34
2022-07-30T23:22:26.037Z,47.05
2022-07-30T23:24:53.297Z,46.88
2022-07-30T23:27:23.611Z,47.34
2022-07-30T23:29:56.903Z,47.82
2022-07-30T23:32:29.582Z,47.53
2022-07-30T23:35:04.375Z,47.37
2022-07-30T23:37:48.476Z,47.28
2022-07-30T23:40:22.912Z,47.64
2022-07-30T23:42:52.890Z,47.45
2022-07-30T23:45:24.256Z,48.14
2022-07-30T23:48:03.538Z,47.70
2022-07-30T23:50:34.611Z,47.83
2022-07-30T23:53:03.038Z,47.47
2022-07-30T23:55:31.877Z,47.98
2022-07-30T23:58:00.777Z,47.32
